Time;durP1;ratioP1;P1;durP2;ratioP2;P2;SDS_P1;SDS_P2;PMS_P1;PMS_P2;Temp;Humidity;BMP_temperature;BMP_pressure;BME280_temperature;BME280_humidity;BME280_pressure;Samples;Min_cycle;Max_cycle;Signal;HPM_P1;HPM_P2
2021/11/19 00:01:11;;;;;;;30.08;11.38;;;;;;;;;;5063728;28;20027;-86
2021/11/19 00:03:37;;;;;;;29.00;10.25;;;;;;;;;;5066458;28;20025;-89
2021/11/19 00:06:03;;;;;;;29.95;11.55;;;;;;;;;;5065789;28;20031;-87
2021/11/19 00:08:33;;;;;;;24.35;10.88;;;;;;;;;;5069774;28;20038;-86
2021/11/19 00:11:01;;;;;;;26.77;10.48;;;;;;;;;;5067810;28;20028;-85
2021/11/19 00:13:30;;;;;;;32.10;11.35;;;;;;;;;;5065804;28;20052;-88
2021/11/19 00:15:59;;;;;;;29.75;11.55;;;;;;;;;;5070938;28;20037;-88
2021/11/19 00:18:28;;;;;;;28.85;12.00;;;;;;;;;;5078106;28;20016;-86
2021/11/19 00:20:55;;;;;;;32.78;12.32;;;;;;;;;;5079474;28;20024;-87
2021/11/19 00:23:23;;;;;;;32.30;11.60;;;;;;;;;;5086438;28;20016;-87
2021/11/19 00:25:50;;;;;;;26.92;10.38;;;;;;;;;;5062701;28;20036;-85
2021/11/19 00:28:17;;;;;;;34.83;12.20;;;;;;;;;;5059744;28;20024;-87
2021/11/19 00:30:43;;;;;;;33.83;11.45;;;;;;;;;;5085035;28;20016;-88
2021/11/19 00:33:14;;;;;;;28.45;11.15;;;;;;;;;;5063545;28;20433;-91
2021/11/19 00:35:40;;;;;;;;;;;;;;;;;;5069767;28;20050;-89
2021/11/19 00:38:08;;;;;;;29.88;10.50;;;;;;;;;;5072022;28;19913;-87
2021/11/19 00:40:36;;;;;;;25.95;10.25;;;;;;;;;;5066340;28;20072;-86
2021/11/19 00:43:05;;;;;;;24.40;10.40;;;;;;;;;;5059281;28;20005;-87
2021/11/19 00:45:31;;;;;;;27.33;11.18;;;;;;;;;;5065493;28;20060;-87
2021/11/19 00:47:58;;;;;;;27.83;10.30;;;;;;;;;;5084637;28;20088;-84
2021/11/19 00:50:28;;;;;;;23.35;11.07;;;;;;;;;;5061527;28;20107;-84
2021/11/19 00:52:55;;;;;;;32.40;10.40;;;;;;;;;;5064058;28;20033;-88
2021/11/19 00:55:22;;;;;;;27.13;9.95;;;;;;;;;;5078360;28;20025;-88
2021/11/19 00:57:48;;;;;;;25.48;10.68;;;;;;;;;;5054273;28;20033;-88
2021/11/19 01:00:16;;;;;;;29.42;11.02;;;;;;;;;;5075507;28;20084;-86
2021/11/19 01:02:42;;;;;;;25.98;10.73;;;;;;;;;;5056414;28;20032;-86
2021/11/19 01:05:14;;;;;;;24.20;10.63;;;;;;;;;;5064332;28;20032;-87
2021/11/19 01:07:40;;;;;;;22.63;11.05;;;;;;;;;;5060952;28;20032;-82
2021/11/19 01:10:10;;;;;;;29.70;11.57;;;;;;;;;;5064612;28;20039;-84
2021/11/19 01:12:39;;;;;;;25.98;10.32;;;;;;;;;;5056035;28;20035;-84
2021/11/19 01:15:06;;;;;;;30.63;10.82;;;;;;;;;;5078697;28;20068;-84
2021/11/19 01:17:45;;;;;;;30.17;11.93;;;;;;;;;;5057535;28;20032;-85
2021/11/19 01:20:15;;;;;;;27.75;11.35;;;;;;;;;;5062411;28;20060;-84
2021/11/19 01:22:43;;;;;;;33.15;10.60;;;;;;;;;;5061675;28;20020;-83
2021/11/19 01:25:14;;;;;;;28.13;11.13;;;;;;;;;;5060862;28;20084;-84
2021/11/19 01:27:43;;;;;;;30.65;11.23;;;;;;;;;;5055979;28;20108;-85
2021/11/19 01:30:11;;;;;;;28.60;11.48;;;;;;;;;;5049005;28;20036;-87
2021/11/19 01:32:37;;;;;;;22.95;10.88;;;;;;;;;;5048584;28;20017;-85
2021/11/19 01:35:04;;;;;;;23.50;10.38;;;;;;;;;;5047252;28;20378;-84
2021/11/19 01:37:32;;;;;;;30.70;10.82;;;;;;;;;;5047074;28;20518;-85
2021/11/19 01:39:58;;;;;;;23.63;9.80;;;;;;;;;;5050071;28;20029;-85
2021/11/19 01:42:26;;;;;;;30.63;12.45;;;;;;;;;;5050655;28;20028;-83
2021/11/19 01:44:55;;;;;;;24.35;10.30;;;;;;;;;;5054555;28;20092;-88
2021/11/19 01:47:22;;;;;;;25.42;10.80;;;;;;;;;;5052435;28;20036;-86
2021/11/19 01:49:48;;;;;;;26.00;10.70;;;;;;;;;;5059401;28;20056;-85
2021/11/19 01:52:17;;;;;;;32.85;12.00;;;;;;;;;;5051231;28;20474;-84
2021/11/19 01:54:54;;;;;;;24.50;10.63;;;;;;;;;;5053077;28;20039;-82
2021/11/19 01:57:23;;;;;;;25.92;11.15;;;;;;;;;;5049764;28;20020;-89
2021/11/19 01:59:54;;;;;;;23.77;10.25;;;;;;;;;;5057408;28;20054;-88
2021/11/19 02:02:32;;;;;;;29.77;12.10;;;;;;;;;;5055145;28;20033;-85
2021/11/19 02:05:04;;;;;;;24.80;9.32;;;;;;;;;;5054650;28;20298;-87
2021/11/19 02:07:32;;;;;;;23.25;9.38;;;;;;;;;;5049137;28;20028;-86
2021/11/19 02:10:32;;;;;;;25.17;9.38;;;;;;;;;;5062705;28;20068;-87
2021/11/19 02:13:17;;;;;;;23.95;9.85;;;;;;;;;;5018354;28;20119;-86
2021/11/19 02:15:46;;;;;;;28.20;10.15;;;;;;;;;;5055293;28;20100;-88
2021/11/19 02:18:15;;;;;;;24.98;9.98;;;;;;;;;;5059941;28;20020;-84
2021/11/19 02:20:42;;;;;;;25.05;10.10;;;;;;;;;;5050587;28;20044;-82
2021/11/19 02:23:11;;;;;;;23.60;9.55;;;;;;;;;;5049793;28;20047;-89
2021/11/19 02:25:44;;;;;;;30.23;11.27;;;;;;;;;;5077274;28;20093;-85
2021/11/19 02:28:16;;;;;;;22.42;9.63;;;;;;;;;;5072611;28;20037;-84
2021/11/19 02:30:51;;;;;;;25.20;9.73;;;;;;;;;;5059822;28;20149;-86
2021/11/19 02:33:18;;;;;;;24.48;9.98;;;;;;;;;;5053285;28;20029;-85
2021/11/19 02:35:50;;;;;;;30.92;9.77;;;;;;;;;;5060125;28;20021;-82
2021/11/19 02:38:18;;;;;;;30.70;9.85;;;;;;;;;;5053214;28;20020;-87
2021/11/19 02:40:45;;;;;;;22.35;9.98;;;;;;;;;;5060292;28;20626;-87
2021/11/19 02:43:14;;;;;;;19.30;9.02;;;;;;;;;;5069579;28;20084;-87
2021/11/19 02:45:43;;;;;;;22.77;9.45;;;;;;;;;;5059751;28;20031;-87
2021/11/19 02:48:14;;;;;;;27.05;9.40;;;;;;;;;;5073096;28;20555;-86
2021/11/19 02:50:40;;;;;;;23.25;8.65;;;;;;;;;;5053485;28;20081;-88
2021/11/19 02:53:07;;;;;;;23.77;9.55;;;;;;;;;;5056529;28;20025;-86
2021/11/19 02:55:36;;;;;;;22.88;9.40;;;;;;;;;;5057772;28;20021;-86
2021/11/19 02:58:03;;;;;;;28.85;10.18;;;;;;;;;;5071548;28;20028;-86
2021/11/19 03:00:31;;;;;;;21.38;9.20;;;;;;;;;;5053150;28;20096;-85
2021/11/19 03:03:00;;;;;;;26.95;9.93;;;;;;;;;;5075053;28;20036;-85
2021/11/19 03:05:28;;;;;;;23.80;10.55;;;;;;;;;;5055628;28;20028;-88
2021/11/19 03:07:54;;;;;;;24.58;11.15;;;;;;;;;;5055882;28;20047;-84
2021/11/19 03:10:25;;;;;;;27.50;10.50;;;;;;;;;;5049183;28;20594;-88
2021/11/19 03:12:52;;;;;;;25.67;10.25;;;;;;;;;;5055934;28;20036;-86
2021/11/19 03:15:27;;;;;;;29.15;11.40;;;;;;;;;;5054513;28;20032;-84
2021/11/19 03:17:53;;;;;;;26.80;10.30;;;;;;;;;;5058613;28;20051;-85
2021/11/19 03:20:20;;;;;;;27.88;10.40;;;;;;;;;;5055345;28;20096;-87
2021/11/19 03:22:47;;;;;;;25.83;10.95;;;;;;;;;;5076960;28;20043;-88
2021/11/19 03:25:18;;;;;;;28.58;11.70;;;;;;;;;;5066590;28;20089;-89
2021/11/19 03:27:45;;;;;;;28.70;11.18;;;;;;;;;;5059845;28;20031;-87
2021/11/19 03:30:13;;;;;;;29.55;11.63;;;;;;;;;;5056335;28;20025;-85
2021/11/19 03:32:39;;;;;;;25.27;11.65;;;;;;;;;;5068344;28;20028;-89
2021/11/19 03:35:06;;;;;;;36.95;12.27;;;;;;;;;;5051361;28;20031;-87
2021/11/19 03:37:33;;;;;;;26.80;11.23;;;;;;;;;;5050195;28;20040;-89
2021/11/19 03:39:59;;;;;;;28.42;12.27;;;;;;;;;;5050875;28;20060;-89
2021/11/19 03:42:25;;;;;;;32.75;10.95;;;;;;;;;;5052294;28;20029;-87
2021/11/19 03:44:57;;;;;;;26.33;11.50;;;;;;;;;;5050952;28;20029;-84
2021/11/19 03:47:25;;;;;;;37.80;12.07;;;;;;;;;;5051151;28;20021;-86
2021/11/19 03:49:52;;;;;;;29.73;12.05;;;;;;;;;;5064285;28;20024;-88
2021/11/19 03:52:23;;;;;;;37.60;12.63;;;;;;;;;;5047583;28;20025;-86
2021/11/19 03:54:51;;;;;;;28.70;11.85;;;;;;;;;;5053890;28;20017;-88
2021/11/19 03:57:18;;;;;;;30.20;11.40;;;;;;;;;;5056462;28;20035;-85
2021/11/19 03:59:45;;;;;;;30.88;13.57;;;;;;;;;;5051037;28;20497;-88
2021/11/19 04:02:11;;;;;;;32.25;11.63;;;;;;;;;;5054622;28;20028;-86
2021/11/19 04:04:38;;;;;;;28.55;12.45;;;;;;;;;;5070258;28;20529;-88
2021/11/19 04:07:05;;;;;;;25.20;11.98;;;;;;;;;;5074430;28;20039;-84
2021/11/19 04:09:32;;;;;;;29.27;12.32;;;;;;;;;;5076915;28;20021;-87
2021/11/19 04:11:59;;;;;;;38.33;12.65;;;;;;;;;;5052648;28;20124;-85
2021/11/19 04:14:25;;;;;;;34.92;13.82;;;;;;;;;;5050007;28;20064;-85
2021/11/19 04:16:55;;;;;;;31.52;12.00;;;;;;;;;;5068378;28;20407;-86
2021/11/19 04:19:25;;;;;;;27.60;12.00;;;;;;;;;;5056549;28;20024;-86
2021/11/19 04:21:53;;;;;;;26.55;12.23;;;;;;;;;;5056236;28;20271;-86
2021/11/19 04:24:22;;;;;;;28.52;12.93;;;;;;;;;;5062691;28;20029;-89
2021/11/19 04:26:49;;;;;;;29.33;11.80;;;;;;;;;;5052389;28;20040;-87
2021/11/19 04:29:15;;;;;;;32.63;12.70;;;;;;;;;;5055511;28;20283;-88
2021/11/19 04:31:41;;;;;;;30.70;12.32;;;;;;;;;;5049481;28;20078;-86
2021/11/19 04:34:08;;;;;;;33.10;12.48;;;;;;;;;;5074166;28;20064;-88
2021/11/19 04:36:35;;;;;;;28.77;12.07;;;;;;;;;;5050359;28;20020;-83
2021/11/19 04:39:02;;;;;;;29.92;12.25;;;;;;;;;;5062304;28;20021;-88
2021/11/19 04:41:29;;;;;;;26.25;12.07;;;;;;;;;;5056543;28;20055;-86
2021/11/19 04:43:55;;;;;;;25.75;11.60;;;;;;;;;;5050505;28;20035;-87
2021/11/19 04:46:21;;;;;;;28.85;11.98;;;;;;;;;;5074212;28;20025;-86
2021/11/19 04:48:47;;;;;;;28.77;11.98;;;;;;;;;;5080724;28;20028;-87
2021/11/19 04:51:15;;;;;;;24.75;11.70;;;;;;;;;;5056825;28;20047;-84
2021/11/19 04:53:42;;;;;;;27.20;11.75;;;;;;;;;;5072734;28;20044;-88
2021/11/19 04:56:08;;;;;;;28.83;14.23;;;;;;;;;;5070885;28;20420;-88
2021/11/19 04:58:34;;;;;;;32.55;13.68;;;;;;;;;;5072331;28;20024;-85
2021/11/19 05:01:02;;;;;;;31.35;14.40;;;;;;;;;;5052932;28;20033;-88
2021/11/19 05:03:28;;;;;;;28.42;13.27;;;;;;;;;;5047314;28;20041;-87
2021/11/19 05:05:55;;;;;;;32.15;14.30;;;;;;;;;;5045750;28;20056;-89
2021/11/19 05:08:21;;;;;;;28.13;13.73;;;;;;;;;;5053730;28;20097;-87
2021/11/19 05:10:48;;;;;;;30.25;14.18;;;;;;;;;;5051038;28;20028;-90
2021/11/19 05:13:15;;;;;;;29.58;13.73;;;;;;;;;;5053692;28;20052;-88
2021/11/19 05:15:43;;;;;;;31.45;13.73;;;;;;;;;;5050792;28;20032;-87
2021/11/19 05:18:09;;;;;;;30.70;14.52;;;;;;;;;;5052963;28;20040;-87
2021/11/19 05:20:35;;;;;;;34.33;14.05;;;;;;;;;;5046983;28;20060;-86
2021/11/19 05:23:01;;;;;;;33.33;14.27;;;;;;;;;;5056056;28;20029;-85
2021/11/19 05:25:29;;;;;;;32.08;15.65;;;;;;;;;;5051609;28;20028;-88
2021/11/19 05:27:55;;;;;;;32.15;14.77;;;;;;;;;;5071219;28;20057;-89
2021/11/19 05:30:22;;;;;;;33.25;14.70;;;;;;;;;;5052995;28;20092;-87
2021/11/19 05:32:48;;;;;;;35.45;15.38;;;;;;;;;;5053946;28;20022;-87
2021/11/19 05:35:14;;;;;;;36.00;14.02;;;;;;;;;;5078150;28;20025;-86
2021/11/19 05:37:41;;;;;;;29.23;13.43;;;;;;;;;;5056351;28;20480;-83
2021/11/19 05:40:09;;;;;;;31.17;12.95;;;;;;;;;;5050570;28;20032;-88
2021/11/19 05:42:35;;;;;;;26.13;13.45;;;;;;;;;;5059042;28;20041;-87
2021/11/19 05:45:01;;;;;;;35.88;14.52;;;;;;;;;;5052856;28;20037;-85
2021/11/19 05:47:27;;;;;;;30.10;14.07;;;;;;;;;;5048024;28;20087;-88
2021/11/19 05:49:57;;;;;;;32.15;13.68;;;;;;;;;;5071571;28;20042;-87
2021/11/19 05:52:32;;;;;;;31.75;13.20;;;;;;;;;;5077422;28;20020;-88
2021/11/19 05:55:00;;;;;;;31.55;13.63;;;;;;;;;;5062660;28;20031;-86
2021/11/19 05:57:26;;;;;;;34.63;14.48;;;;;;;;;;5063168;28;20020;-86
2021/11/19 05:59:55;;;;;;;31.13;13.35;;;;;;;;;;5053990;28;20033;-87
2021/11/19 06:02:22;;;;;;;34.53;14.48;;;;;;;;;;5067152;28;20032;-86
2021/11/19 06:04:48;;;;;;;31.70;13.48;;;;;;;;;;5083293;28;20563;-88
2021/11/19 06:07:25;;;;;;;34.38;15.10;;;;;;;;;;5063372;28;20024;-87
2021/11/19 06:09:51;;;;;;;35.88;14.63;;;;;;;;;;5061902;28;20041;-90
2021/11/19 06:12:30;;;;;;;31.85;15.27;;;;;;;;;;5055271;28;20020;-86
2021/11/19 06:14:58;;;;;;;27.77;14.77;;;;;;;;;;5071076;28;20052;-89
2021/11/19 06:18:00;;;;;;;29.70;14.07;;;;;;;;;;5081298;28;20025;-83
2021/11/19 06:20:29;;;;;;;32.20;14.45;;;;;;;;;;5088331;28;20013;-87
2021/11/19 06:22:58;;;;;;;32.58;14.85;;;;;;;;;;5067830;28;20096;-84
2021/11/19 06:25:30;;;;;;;34.75;14.73;;;;;;;;;;5069219;28;20013;-86
2021/11/19 06:28:03;;;;;;;31.52;13.68;;;;;;;;;;5067131;28;20028;-83
2021/11/19 06:30:30;;;;;;;33.53;13.43;;;;;;;;;;5083161;28;20085;-89
2021/11/19 06:33:19;;;;;;;30.52;13.73;;;;;;;;;;5066230;28;20029;-86
2021/11/19 06:35:45;;;;;;;32.17;13.48;;;;;;;;;;5062465;28;20040;-85
2021/11/19 06:38:12;;;;;;;34.80;14.25;;;;;;;;;;5065724;28;20039;-83
2021/11/19 06:40:46;;;;;;;32.47;13.40;;;;;;;;;;5051858;28;20029;-85
2021/11/19 06:43:21;;;;;;;29.20;13.05;;;;;;;;;;5068465;28;20025;-89
2021/11/19 06:45:47;;;;;;;25.38;11.60;;;;;;;;;;5071134;28;20058;-84
2021/11/19 06:48:14;;;;;;;34.58;13.48;;;;;;;;;;5069397;28;20092;-88
2021/11/19 06:50:43;;;;;;;32.50;13.43;;;;;;;;;;5082363;28;20053;-86
2021/11/19 06:53:11;;;;;;;25.55;13.05;;;;;;;;;;5069820;28;20034;-87
2021/11/19 06:55:37;;;;;;;26.90;12.63;;;;;;;;;;5064126;28;20036;-87
2021/11/19 06:58:05;;;;;;;28.20;12.90;;;;;;;;;;5065818;28;20092;-87
2021/11/19 07:00:32;;;;;;;30.60;14.10;;;;;;;;;;5076663;28;20028;-84
2021/11/19 07:02:59;;;;;;;27.67;12.85;;;;;;;;;;5067056;28;20028;-86
2021/11/19 07:05:25;;;;;;;30.52;13.20;;;;;;;;;;5080356;28;20041;-84
2021/11/19 07:07:52;;;;;;;37.58;13.20;;;;;;;;;;5061772;28;20021;-86
2021/11/19 07:10:20;;;;;;;27.00;12.88;;;;;;;;;;5063207;28;20047;-85
2021/11/19 07:12:46;;;;;;;30.27;12.70;;;;;;;;;;5062360;28;20056;-86
2021/11/19 07:15:19;;;;;;;25.70;12.77;;;;;;;;;;5062052;28;20059;-88
2021/11/19 07:17:46;;;;;;;24.67;13.15;;;;;;;;;;5063541;28;20052;-88
2021/11/19 07:20:13;;;;;;;28.65;11.32;;;;;;;;;;5062603;28;20029;-86
2021/11/19 07:22:40;;;;;;;24.13;11.43;;;;;;;;;;5052699;28;20122;-85
2021/11/19 07:25:08;;;;;;;27.48;13.10;;;;;;;;;;5055020;28;20024;-85
2021/11/19 07:27:37;;;;;;;23.45;11.23;;;;;;;;;;5058522;28;20071;-87
2021/11/19 07:30:29;;;;;;;23.10;10.73;;;;;;;;;;5055705;28;20093;-87
2021/11/19 07:33:01;;;;;;;21.52;11.50;;;;;;;;;;5060415;28;20054;-85
2021/11/19 07:35:29;;;;;;;22.92;11.27;;;;;;;;;;5056427;28;20016;-86
2021/11/19 07:38:16;;;;;;;24.73;11.68;;;;;;;;;;5054854;28;20028;-89
2021/11/19 07:40:46;;;;;;;19.17;10.45;;;;;;;;;;5063114;28;20028;-84
2021/11/19 07:43:13;;;;;;;19.95;10.60;;;;;;;;;;5063517;28;20036;-86
2021/11/19 07:45:42;;;;;;;20.73;10.60;;;;;;;;;;5079700;28;20033;-87
2021/11/19 07:48:13;;;;;;;24.85;10.73;;;;;;;;;;5062951;28;20028;-85
2021/11/19 07:50:41;;;;;;;22.73;11.35;;;;;;;;;;5062018;28;20619;-86
2021/11/19 07:53:09;;;;;;;20.80;9.93;;;;;;;;;;5064509;28;20021;-86
2021/11/19 07:55:38;;;;;;;20.88;10.95;;;;;;;;;;5061388;28;20024;-84
2021/11/19 07:58:27;;;;;;;20.67;9.88;;;;;;;;;;5061857;28;20041;-85
2021/11/19 08:00:54;;;;;;;22.45;11.13;;;;;;;;;;5052757;28;20106;-89
2021/11/19 08:03:20;;;;;;;22.13;10.73;;;;;;;;;;5133037;22;20038;-87
2021/11/19 08:05:52;;;;;;;23.30;11.40;;;;;;;;;;5042551;28;20037;-83
2021/11/19 08:08:18;;;;;;;20.95;10.50;;;;;;;;;;5035750;28;20063;-83
2021/11/19 08:10:45;;;;;;;23.67;10.20;;;;;;;;;;5039417;28;20052;-85
2021/11/19 08:13:11;;;;;;;20.25;10.52;;;;;;;;;;5035899;28;20209;-83
2021/11/19 08:15:37;;;;;;;20.77;10.68;;;;;;;;;;5036360;28;20047;-86
2021/11/19 08:18:05;;;;;;;23.13;11.20;;;;;;;;;;5040550;28;20025;-85
2021/11/19 08:20:37;;;;;;;24.50;12.38;;;;;;;;;;5039792;28;20037;-84
2021/11/19 08:23:07;;;;;;;23.02;11.60;;;;;;;;;;5037493;28;20044;-83
2021/11/19 08:25:33;;;;;;;;;;;;;;;;;;5037607;28;20123;-86
2021/11/19 08:28:00;;;;;;;22.10;11.35;;;;;;;;;;5040016;28;19944;-86
2021/11/19 08:30:31;;;;;;;24.83;10.93;;;;;;;;;;5029559;28;20588;-83
2021/11/19 08:33:01;;;;;;;21.30;11.40;;;;;;;;;;5036037;28;20033;-87
2021/11/19 08:35:27;;;;;;;27.48;11.43;;;;;;;;;;5035664;28;20071;-84
2021/11/19 08:37:54;;;;;;;25.65;10.93;;;;;;;;;;5044064;28;20040;-86
2021/11/19 08:40:21;;;;;;;22.52;10.80;;;;;;;;;;5044686;28;20029;-86
2021/11/19 08:42:48;;;;;;;21.38;10.70;;;;;;;;;;5026721;28;20057;-85
2021/11/19 08:45:15;;;;;;;24.17;11.00;;;;;;;;;;5023130;28;20026;-85
2021/11/19 08:47:42;;;;;;;23.25;10.32;;;;;;;;;;5040689;28;20024;-87
2021/11/19 08:50:09;;;;;;;23.90;9.65;;;;;;;;;;5037772;28;20018;-86
2021/11/19 08:52:35;;;;;;;20.40;10.35;;;;;;;;;;5050826;28;20029;-87
2021/11/19 08:55:01;;;;;;;24.88;10.63;;;;;;;;;;5042012;28;20246;-88
2021/11/19 08:57:28;;;;;;;23.02;10.05;;;;;;;;;;5053028;28;20012;-85
2021/11/19 08:59:55;;;;;;;25.27;10.15;;;;;;;;;;5054831;28;20108;-84
2021/11/19 09:02:22;;;;;;;27.20;12.35;;;;;;;;;;5039684;28;20413;-87
2021/11/19 09:04:48;;;;;;;23.30;10.00;;;;;;;;;;5031469;28;20030;-86
2021/11/19 09:07:15;;;;;;;21.75;10.80;;;;;;;;;;5043348;28;20021;-85
2021/11/19 09:09:42;;;;;;;22.00;10.10;;;;;;;;;;5042765;28;20029;-85
2021/11/19 09:12:08;;;;;;;19.73;10.57;;;;;;;;;;5028621;28;20093;-85
2021/11/19 09:14:34;;;;;;;26.92;10.80;;;;;;;;;;5033533;28;20386;-82
2021/11/19 09:17:00;;;;;;;18.88;9.55;;;;;;;;;;5044015;28;20102;-83
2021/11/19 09:19:33;;;;;;;23.35;10.35;;;;;;;;;;5060600;28;20493;-83
2021/11/19 09:22:02;;;;;;;21.25;9.13;;;;;;;;;;5037438;28;20044;-85
2021/11/19 09:24:31;;;;;;;24.17;10.98;;;;;;;;;;5041376;28;20507;-84
2021/11/19 09:27:00;;;;;;;22.83;9.80;;;;;;;;;;5037001;28;20021;-83
2021/11/19 09:29:31;;;;;;;21.83;10.18;;;;;;;;;;5041298;28;20029;-84
2021/11/19 09:31:57;;;;;;;22.33;10.65;;;;;;;;;;5027763;28;20093;-86
2021/11/19 09:34:24;;;;;;;24.27;10.10;;;;;;;;;;5041947;28;20029;-86
2021/11/19 09:36:51;;;;;;;21.45;11.05;;;;;;;;;;5046096;28;20028;-84
2021/11/19 09:39:46;;;;;;;28.15;10.60;;;;;;;;;;5046539;28;20021;-83
2021/11/19 09:42:27;;;;;;;21.73;10.40;;;;;;;;;;5034310;28;20032;-84
2021/11/19 09:45:10;;;;;;;21.13;10.38;;;;;;;;;;5033935;28;20018;-83
2021/11/19 09:47:43;;;;;;;24.20;10.00;;;;;;;;;;5037136;28;20052;-86
2021/11/19 09:50:27;;;;;;;18.92;9.75;;;;;;;;;;5063314;28;20025;-84
2021/11/19 09:53:12;;;;;;;19.17;10.50;;;;;;;;;;5045926;28;20051;-85
2021/11/19 09:55:55;;;;;;;18.98;9.35;;;;;;;;;;5045691;28;20036;-83
2021/11/19 09:58:27;;;;;;;24.08;11.10;;;;;;;;;;5044359;28;20033;-87
2021/11/19 10:01:38;;;;;;;24.25;11.55;;;8.70;99.90;;;;;;5045414;28;20021;-84
2021/11/19 10:04:32;;;;;;;21.15;9.75;;;;;;;;;;5053848;28;20096;-84
2021/11/19 10:07:18;;;;;;;20.52;9.38;;;;;;;;;;5048739;28;20079;-86
2021/11/19 10:09:54;;;;;;;22.45;10.75;;;;;;;;;;5047797;28;20465;-84
2021/11/19 10:12:26;;;;;;;20.88;11.02;;;;;;;;;;5034714;28;20029;-84
2021/11/19 10:14:52;;;;;;;23.50;11.73;;;;;;;;;;5027576;28;20154;-84
2021/11/19 10:17:37;;;;;;;21.88;10.65;;;;;;;;;;5033197;28;20084;-85
2021/11/19 10:20:23;;;;;;;19.55;10.35;;;;;;;;;;5035953;28;20037;-81
2021/11/19 10:22:52;;;;;;;20.17;10.68;;;;;;;;;;5053416;28;20024;-83
2021/11/19 10:25:37;;;;;;;20.73;10.10;;;;;;;;;;5086977;28;20020;-85
2021/11/19 10:28:51;;;;;;;19.77;9.68;;;9.00;99.90;;;;;;5087402;22;20127;-88
2021/11/19 10:32:00;;;;;;;21.88;10.43;;;;;;;;;;4997135;28;20045;-85
2021/11/19 10:34:39;;;;;;;18.17;9.40;;;;;;;;;;5055032;28;20047;-84
2021/11/19 10:37:14;;;;;;;26.15;10.95;;;;;;;;;;5053161;28;20029;-85
2021/11/19 10:39:46;;;;;;;22.38;10.60;;;;;;;;;;5051668;28;20097;-88
2021/11/19 10:42:24;;;;;;;18.88;10.38;;;;;;;;;;5059543;28;20033;-86
2021/11/19 10:44:57;;;;;;;22.30;10.50;;;;;;;;;;5058633;28;20033;-86
2021/11/19 10:47:23;;;;;;;22.52;10.90;;;;;;;;;;5055646;28;20036;-87
2021/11/19 10:49:58;;;;;;;22.38;10.30;;;;;;;;;;5060137;28;20021;-86
2021/11/19 10:52:36;;;;;;;22.80;10.98;;;;;;;;;;5057764;28;20055;-87
2021/11/19 10:55:20;;;;;;;24.25;11.15;;;;;;;;;;5058142;28;20063;-87
2021/11/19 10:57:46;;;;;;;24.42;10.60;;;;;;;;;;5073111;28;20025;-86
2021/11/19 11:00:14;;;;;;;23.80;11.75;;;;;;;;;;5055711;28;20116;-87
2021/11/19 11:02:51;;;;;;;20.45;11.15;;;;;;;;;;5081828;28;20032;-84
2021/11/19 11:05:34;;;;;;;27.80;12.15;;;;;;;;;;5058411;28;20717;-87
2021/11/19 11:08:12;;;;;;;21.15;11.13;;;;;;;;;;5052784;28;20033;-87
2021/11/19 11:10:54;;;;;;;26.85;11.38;;;;;;;;;;5070059;28;20480;-86
2021/11/19 11:13:25;;;;;;;26.02;10.85;;;;;;;;;;5066959;28;20027;-83
2021/11/19 11:15:53;;;;;;;19.50;9.82;;;;;;;;;;5054498;28;20036;-89
2021/11/19 11:18:22;;;;;;;21.52;10.45;;;;;;;;;;5056059;28;20032;-84
2021/11/19 11:20:57;;;;;;;20.65;10.63;;;;;;;;;;5049959;28;20028;-87
2021/11/19 11:23:38;;;;;;;23.65;11.05;;;;;;;;;;5065354;28;20393;-88
2021/11/19 11:26:15;;;;;;;;;;;9.50;99.90;;;;;;5053026;28;20388;-88
2021/11/19 11:29:20;;;;;;;21.80;11.02;;;;;;;;;;5070510;28;20015;-88
2021/11/19 11:31:52;;;;;;;21.55;10.88;;;;;;;;;;4992458;28;20038;-89
2021/11/19 11:34:20;;;;;;;18.40;9.57;;;;;;;;;;4989575;28;20144;-88
2021/11/19 11:37:06;;;;;;;15.95;9.57;;;;;;;;;;5025919;28;20048;-88
2021/11/19 11:39:39;;;;;;;20.25;9.88;;;;;;;;;;5056020;28;20070;-87
2021/11/19 11:42:11;;;;;;;21.35;10.80;;;;;;;;;;5052011;28;20092;-86
2021/11/19 11:44:37;;;;;;;21.92;11.73;;;;;;;;;;5056404;28;20036;-87
2021/11/19 11:47:12;;;;;;;19.33;9.98;;;;;;;;;;5052576;28;20028;-84
2021/11/19 11:49:44;;;;;;;19.52;10.63;;;;;;;;;;5056691;28;20488;-86
2021/11/19 11:52:10;;;;;;;21.65;10.30;;;;;;;;;;5054696;28;20047;-85
2021/11/19 11:54:36;;;;;;;18.90;10.10;;;;;;;;;;5055143;28;20084;-86
2021/11/19 11:57:42;;;;;;;17.13;9.57;;;;;;;;;;5051010;28;20102;-86
2021/11/19 12:00:14;;;;;;;15.38;8.98;;;;;;;;;;4992927;28;20034;-88
2021/11/19 12:02:40;;;;;;;20.63;9.90;;;;;;;;;;4980890;28;20030;-87
2021/11/19 12:05:06;;;;;;;18.30;8.10;;;;;;;;;;5026318;28;20036;-87
2021/11/19 12:07:50;;;;;;;13.65;6.85;;;;;;;;;;5057426;28;20031;-86
2021/11/19 12:10:20;;;;;;;14.63;7.07;;;;;;;;;;5073167;28;20522;-89
2021/11/19 12:12:47;;;;;;;10.68;6.20;;;;;;;;;;5052505;28;20055;-87
2021/11/19 12:15:40;;;;;;;13.50;6.25;;;;;;;;;;5052960;28;20548;-90
2021/11/19 12:18:18;;;;;;;10.82;5.68;;;;;;;;;;5053967;28;20045;-88
2021/11/19 12:21:03;;;;;;;10.95;5.88;;;;;;;;;;5053944;28;20032;-86
2021/11/19 12:23:38;;;;;;;12.10;6.72;;;;;;;;;;5046952;28;20078;-91
2021/11/19 12:26:13;;;;;;;16.92;7.80;;;;;;;;;;5052403;28;20033;-87
2021/11/19 12:28:40;;;;;;;15.20;7.57;;;;;;;;;;5076422;28;20056;-86
2021/11/19 12:31:27;;;;;;;12.32;7.20;;;;;;;;;;5060342;28;20032;-87
2021/11/19 12:33:57;;;;;;;14.40;7.18;;;;;;;;;;5055040;28;20047;-88
2021/11/19 12:36:31;;;;;;;12.95;8.00;;;;;;;;;;5070741;28;20025;-87
2021/11/19 12:38:59;;;;;;;15.18;7.82;;;;;;;;;;5051205;28;20071;-90
2021/11/19 12:41:39;;;;;;;14.80;7.82;;;;;;;;;;5060578;28;20024;-86
2021/11/19 12:44:44;;;;;;;13.35;6.53;;;;;;;;;;5067856;28;20037;-89
2021/11/19 12:47:26;;;;;;;12.13;7.53;;;;;;;;;;5031875;28;20556;-88
2021/11/19 12:49:59;;;;;;;12.07;6.97;;;;;;;;;;5029795;28;20033;-87
2021/11/19 12:52:31;;;;;;;15.35;7.85;;;;;;;;;;5046846;28;20203;-86
2021/11/19 12:55:10;;;;;;;15.90;8.32;;;;;;;;;;5061099;28;20025;-88
2021/11/19 12:57:47;;;;;;;15.57;8.50;;;;;;;;;;5077055;28;20038;-85
2021/11/19 13:00:20;;;;;;;18.42;8.38;;;;;;;;;;5069622;28;20155;-87
2021/11/19 13:02:47;;;;;;;16.33;8.70;;;;;;;;;;5060430;28;20032;-86
2021/11/19 13:05:36;;;;;;;16.67;7.85;;;;;;;;;;5058272;28;20364;-84
2021/11/19 13:08:09;;;;;;;15.65;8.43;;;;;;;;;;5052362;28;20102;-87
2021/11/19 13:10:46;;;;;;;14.93;7.97;;;;;;;;;;5044467;28;20045;-88
2021/11/19 13:13:32;;;;;;;17.35;8.27;;;;;;;;;;5066640;28;20085;-88
2021/11/19 13:16:16;;;;;;;15.10;8.40;;;;;;;;;;5051828;28;20021;-86
2021/11/19 13:18:48;;;;;;;15.90;8.30;;;;;;;;;;5059161;28;20091;-86
2021/11/19 13:21:30;;;;;;;18.40;10.25;;;;;;;;;;5051677;28;20523;-85
2021/11/19 13:23:57;;;;;;;16.95;9.20;;;;;;;;;;5053305;28;20453;-86
2021/11/19 13:26:26;;;;;;;17.73;9.52;;;;;;;;;;5056247;28;20100;-83
2021/11/19 13:28:57;;;;;;;17.65;9.23;;;;;;;;;;5076454;28;20028;-86
2021/11/19 13:31:23;;;;;;;15.60;9.48;;;;;;;;;;5055854;28;20060;-87
2021/11/19 13:34:02;;;;;;;17.17;9.10;;;;;;;;;;5073211;28;20017;-87
2021/11/19 13:36:56;;;;;;;16.92;10.15;;;10.50;99.90;;;;;;5059549;28;20020;-85
2021/11/19 13:39:30;;;;;;;18.35;10.88;;;;;;;;;;5049941;28;20029;-88
2021/11/19 13:42:05;;;;;;;20.67;12.77;;;;;;;;;;5047140;28;20029;-86
2021/11/19 13:45:07;;;;;;;21.52;12.63;;;10.60;99.90;;;;;;5053341;28;20035;-87
2021/11/19 13:47:33;;;;;;;22.70;12.02;;;;;;;;;;5060636;28;20028;-89
2021/11/19 13:50:06;;;;;;;22.27;13.85;;;;;;;;;;5079177;28;20082;-87
2021/11/19 13:52:41;;;;;;;20.80;13.82;;;;;;;;;;5050824;28;20028;-87
2021/11/19 13:55:20;;;;;;;19.08;11.30;;;;;;;;;;5057090;28;20059;-88
2021/11/19 13:57:53;;;;;;;18.27;10.52;;;;;;;;;;5060720;28;20028;-87
2021/11/19 14:00:28;;;;;;;13.05;7.78;;;;;;;;;;5066792;28;20052;-85
2021/11/19 14:02:55;;;;;;;8.95;5.65;;;;;;;;;;5056407;28;20024;-86
2021/11/19 14:05:21;;;;;;;10.80;6.22;;;;;;;;;;5055011;28;20401;-88
2021/11/19 14:07:50;;;;;;;11.40;5.80;;;;;;;;;;5061125;28;20054;-87
2021/11/19 14:10:32;;;;;;;8.65;5.43;;;;;;;;;;5053887;28;20481;-88
2021/11/19 14:13:02;;;;;;;9.43;4.88;;;;;;;;;;5048498;28;20017;-84
2021/11/19 14:15:28;;;;;;;8.95;5.10;;;;;;;;;;5056601;28;20021;-89
2021/11/19 14:18:20;;;;;;;7.13;5.00;;;;;;;;;;5051054;28;20068;-84
2021/11/19 14:23:43;;;;;;;9.90;5.90;;;;;;;;;;5079503;28;20099;-86
2021/11/19 14:26:35;;;;;;;10.15;6.20;;;;;;;;;;5065164;28;20078;-87
2021/11/19 14:29:08;;;;;;;10.57;6.25;;;;;;;;;;5070303;28;20040;-86
2021/11/19 14:31:34;;;;;;;12.30;6.85;;;;;;;;;;5065916;28;20024;-87
2021/11/19 14:34:00;;;;;;;14.02;6.88;;;;;;;;;;5071981;28;20897;-85
2021/11/19 14:36:31;;;;;;;14.13;7.63;;;;;;;;;;5065216;28;20044;-83
2021/11/19 14:39:02;;;;;;;12.60;7.93;;;;;;;;;;5077041;28;20032;-87
2021/11/19 14:41:36;;;;;;;14.20;8.40;;;;;;;;;;5065820;28;20032;-87
2021/11/19 14:44:05;;;;;;;15.32;8.80;;;;;;;;;;5065152;28;20025;-85
2021/11/19 14:46:33;;;;;;;23.58;11.07;;;;;;;;;;5064327;28;20032;-85
2021/11/19 14:49:05;;;;;;;20.60;11.80;;;;;;;;;;5050733;28;20113;-87